Souk-El Arba, Tunisia
Current Conditions -  °F | °C
As of 1:00 AM on Sunday 26 Oct 2014 (Local Time) from DTTN Reporting Station
Clear Clear  
Wind Chill: 59°   Ceiling: Unl
Heat Index: 59°   Visibility: 5mi
Dew Point: 57°   Wind: 2mph
Humidity: 94%   Direction: 190°S
Pressure: 30.15"   Gusts: NA
Location:  36.5°N, 8.77°E
Report Text: DTTN 260000Z 19002KT 8000 VSC 15/14 Q1021
Loading
Personal Weather Stations






























Interactive Weather Map
Tropical Storm Tracking
New forecast layout! Learn more

10-Day Weather Forecast

Advertisements
Track Severe Weather on mobile